Time;durP1;ratioP1;P1;durP2;ratioP2;P2;SDS_P1;SDS_P2;PMS_P1;PMS_P2;Temp;Humidity;BMP_temperature;BMP_pressure;BME280_temperature;BME280_humidity;BME280_pressure;Samples;Min_cycle;Max_cycle;Signal;HPM_P1;HPM_P2
2023/01/09 00:00:57;;;;;;;3.40;1.63;;;7.50;99.90;;;;;;5058870;28;25112;-79
2023/01/09 00:03:24;;;;;;;3.08;1.60;;;7.50;99.90;;;;;;5041638;28;25060;-79
2023/01/09 00:05:51;;;;;;;5.55;1.80;;;7.50;99.90;;;;;;5041570;28;25114;-78
2023/01/09 00:08:18;;;;;;;2.97;1.70;;;7.50;99.90;;;;;;5041281;28;25113;-79
2023/01/09 00:10:48;;;;;;;3.78;2.08;;;7.50;99.90;;;;;;5041431;28;25079;-79
2023/01/09 00:13:16;;;;;;;2.63;1.30;;;7.50;99.90;;;;;;5041402;28;25111;-78
2023/01/09 00:15:44;;;;;;;4.20;1.45;;;7.60;99.90;;;;;;5041372;28;25101;-78
2023/01/09 00:18:12;;;;;;;3.28;1.38;;;7.60;99.90;;;;;;5059463;28;25058;-79
2023/01/09 00:20:39;;;;;;;2.25;1.23;;;7.60;99.90;;;;;;5041250;28;25085;-79
2023/01/09 00:23:07;;;;;;;7.15;1.40;;;7.60;99.90;;;;;;5058932;28;25062;-78
2023/01/09 00:25:34;;;;;;;1.98;1.48;;;7.60;99.90;;;;;;5041230;28;25053;-78
2023/01/09 00:28:02;;;;;;;3.72;0.90;;;7.60;99.90;;;;;;5041703;28;25122;-78
2023/01/09 00:30:29;;;;;;;2.90;1.00;;;7.60;99.90;;;;;;5058750;28;25083;-78
2023/01/09 00:32:56;;;;;;;3.22;1.10;;;7.60;99.90;;;;;;5059046;28;25055;-78
2023/01/09 00:35:25;;;;;;;3.13;0.95;;;7.60;99.90;;;;;;5040990;28;25102;-78
2023/01/09 00:37:52;;;;;;;1.83;1.00;;;7.60;99.90;;;;;;5058620;28;25118;-78
2023/01/09 00:40:20;;;;;;;1.25;0.80;;;7.70;99.90;;;;;;5059153;28;25055;-78
2023/01/09 00:42:53;;;;;;;0.93;0.55;;;7.70;99.90;;;;;;5041039;28;25066;-78
2023/01/09 00:45:27;;;;;;;1.13;0.73;;;7.70;99.90;;;;;;5058670;28;25057;-78
2023/01/09 00:48:03;;;;;;;2.88;0.73;;;7.70;99.90;;;;;;5039876;28;25117;-78
2023/01/09 00:50:32;;;;;;;3.58;0.80;;;7.80;99.90;;;;;;5040693;28;25087;-78
2023/01/09 00:53:06;;;;;;;2.58;1.38;;;7.80;99.90;;;;;;5058534;28;25096;-78
2023/01/09 00:55:36;;;;;;;3.10;0.85;;;7.80;99.90;;;;;;5040629;28;25131;-78
2023/01/09 00:58:03;;;;;;;3.15;0.98;;;7.80;99.90;;;;;;5040623;28;25057;-78
2023/01/09 01:00:31;;;;;;;5.05;1.10;;;7.80;99.90;;;;;;5040580;28;25119;-78
2023/01/09 01:02:58;;;;;;;1.35;0.63;;;7.80;99.90;;;;;;5058360;28;25066;-78
2023/01/09 01:08:12;;;;;;;3.38;0.90;;;7.70;99.90;;;;;;5058102;28;25095;-78
2023/01/09 01:10:40;;;;;;;2.67;1.00;;;7.70;99.90;;;;;;5057960;28;25052;-78
2023/01/09 01:13:08;;;;;;;1.60;0.60;;;7.60;99.90;;;;;;5058512;28;25076;-78
2023/01/09 01:15:39;;;;;;;5.40;1.00;;;7.60;99.90;;;;;;5058304;28;25065;-78
2023/01/09 01:18:07;;;;;;;1.73;0.77;;;7.60;99.90;;;;;;5040299;28;25078;-79
2023/01/09 01:20:34;;;;;;;1.30;0.80;;;7.50;99.90;;;;;;5058708;28;25104;-79
2023/01/09 01:23:01;;;;;;;4.13;0.93;;;7.50;99.90;;;;;;5057933;28;25056;-79
2023/01/09 01:25:28;;;;;;;2.60;0.90;;;7.50;99.90;;;;;;5040092;28;25059;-80
2023/01/09 01:27:56;;;;;;;1.60;0.98;;;7.50;99.90;;;;;;5040058;28;25130;-80
2023/01/09 01:30:23;;;;;;;3.30;0.70;;;7.50;99.90;;;;;;5056247;28;25139;-79
2023/01/09 01:32:50;;;;;;;3.35;0.98;;;7.40;99.90;;;;;;5077973;28;25138;-79
2023/01/09 01:35:17;;;;;;;3.28;0.80;;;7.40;99.90;;;;;;5078335;28;25055;-79
2023/01/09 01:37:45;;;;;;;2.20;0.90;;;7.30;99.90;;;;;;5076329;28;25138;-79
2023/01/09 01:40:12;;;;;;;2.47;0.80;;;7.30;99.90;;;;;;5077857;28;25077;-78
2023/01/09 01:42:46;;;;;;;1.98;0.80;;;7.30;99.90;;;;;;5077772;28;25051;-78
2023/01/09 01:45:18;;;;;;;5.13;1.02;;;7.30;99.90;;;;;;5076331;28;25067;-78
2023/01/09 01:48:03;;;;;;;1.58;0.90;;;7.30;99.90;;;;;;5077666;28;25110;-78
2023/01/09 01:50:44;;;;;;;1.38;0.52;;;7.20;99.90;;;;;;5077505;28;25063;-79
2023/01/09 01:53:21;;;;;;;3.30;1.48;;;7.20;99.90;;;;;;5077230;28;25084;-78
2023/01/09 01:55:58;;;;;;;2.45;1.08;;;7.20;99.90;;;;;;5076117;28;25061;-78
2023/01/09 01:58:26;;;;;;;7.07;0.90;;;7.20;99.90;;;;;;5075859;28;25086;-78
2023/01/09 02:00:54;;;;;;;1.73;0.85;;;7.20;99.90;;;;;;5075994;28;25055;-78
2023/01/09 02:03:25;;;;;;;2.30;0.80;;;7.30;99.90;;;;;;5076125;28;25123;-78
2023/01/09 02:05:53;;;;;;;3.53;0.80;;;7.20;99.90;;;;;;5076172;28;25064;-79
2023/01/09 02:08:21;;;;;;;1.10;0.50;;;7.20;99.90;;;;;;5076931;28;25124;-79
2023/01/09 02:10:49;;;;;;;0.98;0.57;;;7.20;99.90;;;;;;5075731;28;25080;-79
2023/01/09 02:13:17;;;;;;;1.23;0.60;;;7.20;99.90;;;;;;5077093;28;25139;-79
2023/01/09 02:16:02;;;;;;;1.48;0.47;;;7.20;99.90;;;;;;5076066;28;25106;-78
2023/01/09 02:18:46;;;;;;;2.78;0.60;;;7.20;99.90;;;;;;5075774;28;25064;-78
2023/01/09 02:21:35;;;;;;;1.67;0.50;;;7.20;99.90;;;;;;5075612;28;25092;-78
2023/01/09 02:24:30;;;;;;;0.75;0.40;;;7.20;99.90;;;;;;5075789;28;25059;-78
2023/01/09 02:27:17;;;;;;;1.55;0.63;;;7.20;99.90;;;;;;5076403;28;25073;-78
2023/01/09 02:30:19;;;;;;;2.03;0.60;;;7.20;99.90;;;;;;5075312;28;25068;-78
2023/01/09 02:32:49;;;;;;;0.95;0.45;;;7.20;99.90;;;;;;5076898;28;25118;-78
2023/01/09 02:35:35;;;;;;;1.10;0.40;;;7.20;99.90;;;;;;5075630;28;25081;-78
2023/01/09 02:38:42;;;;;;;2.80;0.75;;;7.20;99.90;;;;;;5076492;28;25114;-78
2023/01/09 02:41:45;;;;;;;1.65;0.60;;;7.20;99.90;;;;;;5075406;28;25086;-78
2023/01/09 02:44:17;;;;;;;1.95;0.63;;;7.20;99.90;;;;;;5071896;28;25089;-78
2023/01/09 02:46:44;;;;;;;0.65;0.47;;;7.20;99.90;;;;;;5075388;28;25051;-78
2023/01/09 02:49:13;;;;;;;0.65;0.40;;;7.20;99.90;;;;;;5074898;28;25067;-78
2023/01/09 02:51:52;;;;;;;1.75;0.52;;;7.20;99.90;;;;;;5075153;28;25095;-78
2023/01/09 02:54:50;;;;;;;1.83;0.57;;;7.20;99.90;;;;;;5076565;28;25112;-78
2023/01/09 02:57:33;;;;;;;1.08;0.50;;;7.20;99.90;;;;;;5076636;28;25066;-78
2023/01/09 03:00:13;;;;;;;1.02;0.63;;;7.10;99.90;;;;;;5075262;28;25075;-78
2023/01/09 03:02:56;;;;;;;0.68;0.30;;;7.10;99.90;;;;;;5075235;28;25097;-78
2023/01/09 03:05:35;;;;;;;0.85;0.30;;;7.10;99.90;;;;;;5076983;28;25076;-78
2023/01/09 03:08:25;;;;;;;1.17;0.40;;;7.10;99.90;;;;;;5076227;28;25074;-77
2023/01/09 03:11:05;;;;;;;0.32;0.20;;;7.00;99.90;;;;;;5079181;28;25112;-79
2023/01/09 03:13:48;;;;;;;0.38;0.30;;;6.90;99.90;;;;;;5079390;28;25092;-80
2023/01/09 03:16:25;;;;;;;0.95;0.30;;;6.80;99.90;;;;;;5080289;28;25063;-80
2023/01/09 03:18:55;;;;;;;1.52;0.50;;;6.70;99.90;;;;;;5075150;28;25087;-78
2023/01/09 03:21:23;;;;;;;0.88;0.40;;;6.70;99.90;;;;;;5079066;28;25061;-77
2023/01/09 03:23:58;;;;;;;0.57;0.20;;;6.60;99.90;;;;;;5078848;28;25072;-78
2023/01/09 03:26:25;;;;;;;3.20;0.20;;;6.60;99.90;;;;;;5079040;28;25123;-78
2023/01/09 03:28:53;;;;;;;0.68;0.40;;;6.60;99.90;;;;;;5079022;28;25074;-78
2023/01/09 03:31:20;;;;;;;1.98;0.22;;;6.60;99.90;;;;;;5078549;28;25088;-78
2023/01/09 03:33:48;;;;;;;1.25;0.40;;;6.60;99.90;;;;;;5080442;28;25128;-78
2023/01/09 03:36:17;;;;;;;0.88;0.30;;;6.50;99.90;;;;;;5080135;28;25076;-78
2023/01/09 03:38:44;;;;;;;1.25;0.40;;;6.60;99.90;;;;;;5079880;28;25072;-78
2023/01/09 03:41:11;;;;;;;0.85;0.30;;;6.50;99.90;;;;;;5079832;28;25079;-78
2023/01/09 03:43:38;;;;;;;0.57;0.30;;;6.60;99.90;;;;;;5078734;28;25063;-78
2023/01/09 03:46:06;;;;;;;0.70;0.30;;;6.60;99.90;;;;;;5078669;28;25078;-78
2023/01/09 03:48:33;;;;;;;0.38;0.20;;;6.60;99.90;;;;;;5079820;28;25056;-78
2023/01/09 03:51:00;;;;;;;0.38;0.20;;;6.60;99.90;;;;;;5079547;28;25059;-78
2023/01/09 03:53:28;;;;;;;1.35;0.75;;;6.60;99.90;;;;;;5078455;28;25059;-78
2023/01/09 03:55:57;;;;;;;0.30;0.30;;;6.60;99.90;;;;;;5078468;28;25071;-78
2023/01/09 03:58:25;;;;;;;0.40;0.25;;;6.50;99.90;;;;;;5078581;28;25075;-78
2023/01/09 04:00:59;;;;;;;0.57;0.30;;;6.60;99.90;;;;;;5078337;28;25137;-78
2023/01/09 04:03:26;;;;;;;0.15;0.15;;;6.60;99.90;;;;;;5078366;28;25130;-78
2023/01/09 04:05:53;;;;;;;0.22;0.17;;;6.60;99.90;;;;;;5079612;28;25092;-78
2023/01/09 04:08:20;;;;;;;1.40;0.30;;;6.60;99.90;;;;;;5079439;28;25054;-78
2023/01/09 04:10:49;;;;;;;0.43;0.20;;;6.60;99.90;;;;;;5078084;28;25070;-78
2023/01/09 04:13:17;;;;;;;0.40;0.20;;;6.60;99.90;;;;;;5079204;28;25112;-80
2023/01/09 04:15:44;;;;;;;0.55;0.20;;;6.60;99.90;;;;;;5079193;28;25071;-78
2023/01/09 04:18:13;;;;;;;0.60;0.22;;;6.60;99.90;;;;;;5078245;28;25054;-78
2023/01/09 04:20:40;;;;;;;0.30;0.15;;;6.60;99.90;;;;;;5079028;28;25108;-78
2023/01/09 04:23:08;;;;;;;0.82;0.22;;;6.60;99.90;;;;;;5079009;28;25057;-77
2023/01/09 04:25:35;;;;;;;0.28;0.20;;;6.60;99.90;;;;;;5077874;28;25062;-77
2023/01/09 04:28:03;;;;;;;0.50;0.20;;;6.60;99.90;;;;;;5078062;28;25063;-77
2023/01/09 04:30:30;;;;;;;2.13;0.40;;;6.60;99.90;;;;;;5068256;28;25073;-78
2023/01/09 04:32:58;;;;;;;0.50;0.30;;;6.60;99.90;;;;;;5059114;28;25077;-78
2023/01/09 04:35:27;;;;;;;0.32;0.20;;;6.60;99.90;;;;;;5059038;28;25139;-78
2023/01/09 04:37:54;;;;;;;1.55;0.45;;;6.60;99.90;;;;;;5041092;28;25058;-78
2023/01/09 04:40:22;;;;;;;3.78;1.20;;;6.70;99.90;;;;;;5058650;28;25057;-78
2023/01/09 04:42:49;;;;;;;1.92;0.50;;;6.60;99.90;;;;;;5058932;28;25069;-78
2023/01/09 04:45:16;;;;;;;1.17;0.40;;;6.70;99.90;;;;;;5058847;28;25087;-78
2023/01/09 04:47:44;;;;;;;1.77;0.77;;;6.60;99.90;;;;;;5058738;28;25054;-78
2023/01/09 04:50:13;;;;;;;1.70;0.70;;;6.70;99.90;;;;;;5040673;28;25066;-78
2023/01/09 04:52:40;;;;;;;0.95;0.60;;;6.70;99.90;;;;;;5058248;28;25055;-78
2023/01/09 04:55:08;;;;;;;2.30;0.90;;;6.70;99.90;;;;;;5058686;28;25124;-78
2023/01/09 04:57:36;;;;;;;1.67;0.93;;;6.70;99.90;;;;;;5040921;28;25052;-78
2023/01/09 05:00:08;;;;;;;1.48;0.88;;;6.70;99.90;;;;;;5040584;28;25081;-78
2023/01/09 05:02:36;;;;;;;2.75;1.10;;;6.70;99.90;;;;;;5058328;28;25137;-78
2023/01/09 05:05:08;;;;;;;2.42;1.00;;;6.70;99.90;;;;;;5058508;28;25131;-78
2023/01/09 05:07:35;;;;;;;2.90;0.80;;;6.70;99.90;;;;;;5040538;28;25055;-78
2023/01/09 05:10:04;;;;;;;3.25;1.17;;;6.70;99.90;;;;;;5058343;28;25055;-78
2023/01/09 05:12:33;;;;;;;2.13;1.15;;;6.70;99.90;;;;;;5058348;28;25076;-78
2023/01/09 05:15:01;;;;;;;3.17;0.95;;;6.70;99.90;;;;;;5058023;28;25085;-78
2023/01/09 05:17:28;;;;;;;3.60;1.23;;;6.70;99.90;;;;;;5058278;28;25103;-78
2023/01/09 05:19:56;;;;;;;2.20;1.35;;;6.70;99.90;;;;;;5040479;28;25131;-78
2023/01/09 05:22:23;;;;;;;2.70;1.35;;;6.70;99.90;;;;;;5057827;28;25046;-78
2023/01/09 05:24:50;;;;;;;2.35;1.45;;;6.70;99.90;;;;;;5058156;28;25088;-78
2023/01/09 05:27:18;;;;;;;2.67;1.63;;;6.70;99.90;;;;;;5057753;28;25110;-80
2023/01/09 05:29:45;;;;;;;5.93;2.28;;;6.70;99.90;;;;;;5045159;28;25073;-80
2023/01/09 05:32:12;;;;;;;3.00;1.77;;;6.70;99.90;;;;;;5074277;28;25087;-78
2023/01/09 05:34:40;;;;;;;2.83;1.88;;;6.70;99.90;;;;;;5076630;28;25087;-78
2023/01/09 05:37:07;;;;;;;3.83;1.80;;;6.70;99.90;;;;;;5074735;28;25142;-78
2023/01/09 05:39:34;;;;;;;4.57;2.58;;;6.70;99.90;;;;;;5076666;28;25068;-78
2023/01/09 05:42:03;;;;;;;3.92;2.45;;;6.70;99.90;;;;;;5076413;28;24996;-78
2023/01/09 05:44:30;;;;;;;5.18;2.67;;;6.70;99.90;;;;;;5076508;28;25064;-78
2023/01/09 05:46:57;;;;;;;4.85;2.47;;;6.70;99.90;;;;;;5076313;28;25105;-80
2023/01/09 05:49:24;;;;;;;5.22;3.25;;;6.70;99.90;;;;;;5076461;28;25125;-78
2023/01/09 05:51:51;;;;;;;8.07;3.30;;;6.70;99.90;;;;;;5075380;28;25064;-78
2023/01/09 05:54:19;;;;;;;5.97;3.15;;;6.70;99.90;;;;;;5077566;28;25140;-78
2023/01/09 05:56:46;;;;;;;8.48;3.60;;;6.60;99.90;;;;;;5076112;28;25051;-78
2023/01/09 05:59:13;;;;;;;5.43;3.65;;;6.60;99.90;;;;;;5076279;28;25143;-78
2023/01/09 06:01:40;;;;;;;5.55;2.83;;;6.60;99.90;;;;;;5077136;28;25099;-78
2023/01/09 06:04:08;;;;;;;11.40;3.60;;;6.60;99.90;;;;;;5077430;28;25077;-78
2023/01/09 06:06:35;;;;;;;6.20;4.15;;;6.50;99.90;;;;;;5077009;28;25081;-78
2023/01/09 06:09:02;;;;;;;9.32;4.20;;;6.40;99.90;;;;;;5076095;28;25104;-79
2023/01/09 06:11:30;;;;;;;5.28;3.72;;;6.40;99.90;;;;;;5075764;28;25047;-79
2023/01/09 06:13:57;;;;;;;6.93;3.78;;;6.30;99.90;;;;;;5075791;28;25095;-78
2023/01/09 06:16:24;;;;;;;11.70;4.90;;;6.30;99.90;;;;;;5075724;28;25069;-78
2023/01/09 06:18:53;;;;;;;7.95;4.60;;;6.20;99.90;;;;;;5075869;28;25075;-78
2023/01/09 06:21:21;;;;;;;8.20;4.07;;;6.20;99.90;;;;;;5076996;28;25089;-78
2023/01/09 06:23:48;;;;;;;6.53;4.10;;;6.20;99.90;;;;;;5075691;28;25055;-78
2023/01/09 06:26:15;;;;;;;7.65;3.97;;;6.30;99.90;;;;;;5075665;28;25052;-78
2023/01/09 06:28:43;;;;;;;8.65;4.38;;;6.30;99.90;;;;;;5075770;28;25061;-78
2023/01/09 06:31:10;;;;;;;18.95;4.85;;;6.30;99.90;;;;;;5060537;28;25060;-78
2023/01/09 06:33:38;;;;;;;9.02;3.85;;;6.30;99.90;;;;;;5056858;28;25061;-78
2023/01/09 06:36:05;;;;;;;6.00;3.50;;;6.30;99.90;;;;;;5038826;28;25058;-78
2023/01/09 06:38:33;;;;;;;10.38;4.15;;;6.30;99.90;;;;;;5055157;28;25071;-78
2023/01/09 06:41:00;;;;;;;12.43;5.32;;;6.40;99.90;;;;;;5038718;28;25107;-78
2023/01/09 06:43:28;;;;;;;8.18;4.28;;;6.30;99.90;;;;;;5056326;28;25163;-78
2023/01/09 06:45:56;;;;;;;6.50;3.80;;;6.40;99.90;;;;;;5056089;28;25126;-78
2023/01/09 06:48:24;;;;;;;6.93;4.07;;;6.40;99.90;;;;;;5056558;28;25094;-78
2023/01/09 06:50:53;;;;;;;7.30;3.40;;;6.40;99.90;;;;;;5038587;28;25057;-78
2023/01/09 06:53:21;;;;;;;4.82;2.45;;;6.40;99.90;;;;;;5038577;28;25120;-78
2023/01/09 06:55:48;;;;;;;3.78;2.83;;;6.30;99.90;;;;;;5038593;28;25081;-78
2023/01/09 06:58:15;;;;;;;6.40;3.42;;;6.30;99.90;;;;;;5056471;28;25126;-78
2023/01/09 07:00:43;;;;;;;7.90;3.30;;;6.30;99.90;;;;;;5056253;28;25094;-78
2023/01/09 07:03:11;;;;;;;5.22;3.08;;;6.20;99.90;;;;;;5038585;28;25069;-78
2023/01/09 07:05:42;;;;;;;5.15;2.97;;;6.00;99.90;;;;;;5056120;28;25115;-78
2023/01/09 07:08:09;;;;;;;6.10;2.80;;;6.00;99.90;;;;;;5056285;28;25076;-78
2023/01/09 07:10:37;;;;;;;4.72;2.50;;;5.90;99.90;;;;;;5038359;28;25072;-78
2023/01/09 07:13:05;;;;;;;4.63;2.72;;;5.80;99.90;;;;;;5038441;28;25071;-78
2023/01/09 07:15:32;;;;;;;7.43;2.60;;;5.70;99.90;;;;;;5056030;28;25128;-80
2023/01/09 07:17:59;;;;;;;7.30;2.85;;;5.70;99.90;;;;;;5038483;28;25062;-80
2023/01/09 07:20:26;;;;;;;5.75;2.10;;;5.70;99.90;;;;;;5038370;28;25130;-82
2023/01/09 07:22:53;;;;;;;5.97;2.00;;;5.70;99.90;;;;;;5038266;28;25108;-82
2023/01/09 07:25:20;;;;;;;3.88;2.05;;;5.60;99.90;;;;;;5055924;28;25052;-81
2023/01/09 07:27:49;;;;;;;4.22;1.83;;;5.60;99.90;;;;;;5038393;28;25060;-75
2023/01/09 07:30:16;;;;;;;4.75;2.10;;;5.60;99.90;;;;;;5051428;28;25086;-78
2023/01/09 07:32:44;;;;;;;7.53;2.20;;;5.50;99.90;;;;;;5074917;28;25136;-76
2023/01/09 07:35:11;;;;;;;5.03;2.58;;;5.40;99.90;;;;;;5075917;28;25055;-82
2023/01/09 07:37:38;;;;;;;5.78;2.95;;;5.40;99.90;;;;;;5076356;28;25065;-81
2023/01/09 07:40:06;;;;;;;4.57;2.17;;;5.40;99.90;;;;;;5076176;28;25102;-80
2023/01/09 07:42:33;;;;;;;14.75;2.30;;;5.40;99.90;;;;;;5075912;28;25132;-78
2023/01/09 07:45:01;;;;;;;5.50;2.20;;;5.40;99.90;;;;;;5075867;28;25078;-74
2023/01/09 07:47:28;;;;;;;14.27;2.53;;;5.40;99.90;;;;;;5076959;28;25120;-76
2023/01/09 07:49:56;;;;;;;4.22;2.10;;;5.40;99.90;;;;;;5075960;28;25060;-75
2023/01/09 07:52:23;;;;;;;6.47;2.10;;;5.50;99.90;;;;;;5075897;28;25056;-75
2023/01/09 07:54:51;;;;;;;9.40;2.00;;;5.50;99.90;;;;;;5074723;28;25058;-77
2023/01/09 07:57:18;;;;;;;8.35;2.00;;;5.60;99.90;;;;;;5077967;28;25066;-76
2023/01/09 07:59:45;;;;;;;5.82;2.30;;;5.60;99.90;;;;;;5079951;28;25116;-76
2023/01/09 08:02:13;;;;;;;4.82;1.73;;;5.60;99.90;;;;;;5079728;28;25103;-76
2023/01/09 08:04:41;;;;;;;11.48;2.30;;;5.60;99.90;;;;;;5079378;28;25147;-76
2023/01/09 08:07:08;;;;;;;4.20;1.40;;;5.60;99.90;;;;;;5079270;28;25108;-77
2023/01/09 08:09:35;;;;;;;7.60;1.83;;;5.70;99.90;;;;;;5079766;28;25055;-74
2023/01/09 08:12:03;;;;;;;3.38;1.60;;;5.70;99.90;;;;;;5078083;28;25072;-74
2023/01/09 08:14:31;;;;;;;8.90;2.17;;;5.70;99.90;;;;;;5079232;28;25113;-73
2023/01/09 08:16:59;;;;;;;8.73;1.65;;;5.70;99.90;;;;;;5079662;28;25153;-73
2023/01/09 08:19:26;;;;;;;4.82;1.30;;;5.70;99.90;;;;;;5079611;28;25113;-77
2023/01/09 08:21:53;;;;;;;4.40;1.63;;;5.70;99.90;;;;;;5078022;28;25121;-76
2023/01/09 08:24:20;;;;;;;3.45;1.33;;;5.70;99.90;;;;;;5079309;28;25047;-73
2023/01/09 08:26:47;;;;;;;4.18;1.30;;;5.80;99.90;;;;;;5078950;28;25058;-73
2023/01/09 08:29:15;;;;;;;4.07;1.45;;;5.80;99.90;;;;;;5077843;28;25073;-74
2023/01/09 08:31:43;;;;;;;6.57;1.80;;;5.90;99.90;;;;;;5079528;28;25102;-74
2023/01/09 08:34:10;;;;;;;4.22;1.60;;;6.00;99.90;;;;;;5079290;28;25129;-73
2023/01/09 08:36:38;;;;;;;9.25;1.65;;;6.10;99.90;;;;;;5078766;28;25065;-74
2023/01/09 08:39:05;;;;;;;8.68;3.35;;;6.10;99.90;;;;;;5077705;28;25049;-75
2023/01/09 08:47:05;;;;;;;2.75;1.45;;;6.10;99.90;;;;;;5078673;28;25109;-75
2023/01/09 08:49:34;;;;;;;8.65;2.08;;;6.10;99.90;;;;;;5078625;28;25085;-75
2023/01/09 08:52:02;;;;;;;9.57;3.22;;;6.10;99.90;;;;;;5077283;28;25098;-75
2023/01/09 08:54:29;;;;;;;13.30;5.63;;;6.10;99.90;;;;;;5078950;28;25064;-75
2023/01/09 08:56:56;;;;;;;15.07;5.20;;;6.20;99.90;;;;;;5077324;28;25053;-75
2023/01/09 08:59:23;;;;;;;5.65;2.58;;;6.20;99.90;;;;;;5078719;28;25074;-75
2023/01/09 09:01:51;;;;;;;5.05;2.08;;;6.20;99.90;;;;;;5078309;28;25070;-75
2023/01/09 09:04:19;;;;;;;6.28;1.30;;;6.20;99.90;;;;;;5078484;28;25114;-75
2023/01/09 09:06:47;;;;;;;5.32;1.35;;;6.20;99.90;;;;;;5077776;28;25062;-75
2023/01/09 09:09:15;;;;;;;1.90;0.93;;;6.20;99.90;;;;;;5078104;28;25046;-75
2023/01/09 09:11:42;;;;;;;4.53;1.15;;;6.30;99.90;;;;;;5077275;28;25065;-75
2023/01/09 09:16:55;;;;;;;4.15;0.70;;;6.40;99.90;;;;;;5078349;28;25055;-75
2023/01/09 09:19:22;;;;;;;3.20;0.75;;;6.40;99.90;;;;;;5078313;28;25091;-75
2023/01/09 09:21:50;;;;;;;5.40;0.85;;;6.40;99.90;;;;;;5077842;28;25080;-75
2023/01/09 09:24:17;;;;;;;6.68;0.70;;;6.40;99.90;;;;;;5076980;28;25113;-75
2023/01/09 09:26:44;;;;;;;3.88;0.80;;;6.40;99.90;;;;;;5077217;28;25070;-76
2023/01/09 09:29:12;;;;;;;2.00;0.80;;;6.40;99.90;;;;;;5076727;28;25107;-76
2023/01/09 09:31:39;;;;;;;5.65;1.17;;;6.40;99.90;;;;;;5057963;28;25086;-75
2023/01/09 09:34:09;;;;;;;4.43;0.88;;;6.40;99.90;;;;;;5057802;28;25068;-76
2023/01/09 09:36:36;;;;;;;2.78;0.85;;;6.30;99.90;;;;;;5057565;28;25079;-76
2023/01/09 09:39:06;;;;;;;4.93;0.82;;;6.30;99.90;;;;;;5057515;28;25079;-74
2023/01/09 09:45:39;;;;;;;2.13;0.60;;;6.40;99.90;;;;;;5057794;28;25136;-74
2023/01/09 09:48:36;;;;;;;4.22;0.57;;;6.50;99.90;;;;;;5057361;28;25060;-75
2023/01/09 09:51:16;;;;;;;2.58;0.57;;;6.60;99.90;;;;;;5057578;28;25105;-74
2023/01/09 09:54:13;;;;;;;2.55;1.20;;;6.70;99.90;;;;;;5057601;28;25060;-74
2023/01/09 09:56:51;;;;;;;1.42;0.55;;;6.90;99.90;;;;;;5039570;28;25124;-74
2023/01/09 09:59:31;;;;;;;3.60;0.68;;;6.90;99.90;;;;;;5057374;28;25098;-74
2023/01/09 10:02:28;;;;;;;2.92;0.60;;;6.90;99.90;;;;;;5039453;28;25069;-74
2023/01/09 10:05:15;;;;;;;1.40;0.60;;;6.90;99.90;;;;;;5056188;28;25076;-75
2023/01/09 10:07:47;;;;;;;1.80;0.60;;;6.90;99.90;;;;;;5039486;28;25077;-76
2023/01/09 10:10:33;;;;;;;5.00;2.85;;;6.90;99.90;;;;;;5039240;28;25068;-76
2023/01/09 10:16:10;;;;;;;1.92;0.30;;;7.00;99.90;;;;;;5057607;28;25078;-76
2023/01/09 10:19:22;;;;;;;5.35;0.90;;;7.10;99.90;;;;;;5056949;28;25058;-74
2023/01/09 10:22:10;;;;;;;3.08;0.70;;;7.20;99.90;;;;;;5056693;28;25095;-73
2023/01/09 10:25:08;;;;;;;5.05;1.13;;;7.20;99.90;;;;;;5039020;28;25091;-75
2023/01/09 10:28:02;;;;;;;1.65;0.47;;;7.30;99.90;;;;;;5039243;28;25104;-75
2023/01/09 10:30:48;;;;;;;1.95;0.47;;;7.30;99.90;;;;;;5056929;28;25074;-75
2023/01/09 10:33:52;;;;;;;0.63;0.40;;;7.30;99.90;;;;;;5057043;28;25152;-75
2023/01/09 10:36:51;;;;;;;3.42;0.73;;;7.40;99.90;;;;;;5056471;28;25073;-75
2023/01/09 10:39:37;;;;;;;6.63;1.10;;;7.40;99.90;;;;;;5038980;28;25095;-75
2023/01/09 10:42:32;;;;;;;3.15;0.32;;;7.50;99.90;;;;;;5057058;28;25067;-71
2023/01/09 10:45:28;;;;;;;6.45;1.05;;;7.50;99.90;;;;;;5055719;28;25081;-75
2023/01/09 10:48:06;;;;;;;1.60;0.60;;;7.60;99.90;;;;;;5056614;28;25066;-75
2023/01/09 10:50:42;;;;;;;2.90;0.77;;;7.70;99.90;;;;;;5055908;28;25056;-74
2023/01/09 10:53:38;;;;;;;2.20;0.80;;;7.70;99.90;;;;;;5056209;28;25054;-74
2023/01/09 10:56:27;;;;;;;6.55;0.80;;;7.70;99.90;;;;;;5056285;28;25065;-75
2023/01/09 10:58:55;;;;;;;1.52;0.60;;;7.70;99.90;;;;;;5038686;28;25089;-74
2023/01/09 11:01:30;;;;;;;1.52;0.60;;;7.80;99.90;;;;;;5057133;28;25055;-74
2023/01/09 11:04:02;;;;;;;2.53;0.40;;;7.90;99.90;;;;;;5056950;28;25099;-74
2023/01/09 11:06:46;;;;;;;2.33;0.77;;;7.90;99.90;;;;;;5056423;28;25063;-74
2023/01/09 11:09:16;;;;;;;1.63;0.50;;;8.00;99.90;;;;;;5056456;28;25080;-74
2023/01/09 11:11:44;;;;;;;2.03;0.52;;;8.20;99.90;;;;;;5038316;28;25063;-74
2023/01/09 11:14:17;;;;;;;1.98;0.45;;;8.20;99.90;;;;;;5038604;28;25072;-74
2023/01/09 11:17:04;;;;;;;2.70;0.52;;;8.30;99.90;;;;;;5056648;28;25090;-74
2023/01/09 11:19:35;;;;;;;6.18;0.85;;;8.20;99.90;;;;;;5038406;28;25080;-74
2023/01/09 11:22:16;;;;;;;2.28;1.13;;;8.20;99.90;;;;;;5056544;28;25063;-74
2023/01/09 11:24:44;;;;;;;3.08;0.60;;;8.10;99.90;;;;;;5056060;28;25098;-74
2023/01/09 11:27:22;;;;;;;1.27;0.40;;;8.10;99.90;;;;;;5038390;28;25122;-74
2023/01/09 11:30:25;;;;;;;3.10;0.40;;;8.10;99.90;;;;;;5056024;28;25125;-74
2023/01/09 11:32:54;;;;;;;2.00;0.60;;;8.00;99.90;;;;;;5058014;28;25072;-74
2023/01/09 11:35:29;;;;;;;2.63;0.82;;;7.90;99.90;;;;;;5060281;28;25053;-74
2023/01/09 11:38:30;;;;;;;2.78;1.15;;;7.80;99.90;;;;;;5042151;28;25091;-74
2023/01/09 11:41:03;;;;;;;1.05;0.57;;;7.70;99.90;;;;;;5057682;28;25066;-77
2023/01/09 11:43:39;;;;;;;1.35;0.32;;;7.50;99.90;;;;;;5042331;28;25083;-76
2023/01/09 11:46:13;;;;;;;0.95;0.63;;;7.50;99.90;;;;;;5060596;28;25090;-77
2023/01/09 11:48:57;;;;;;;1.73;0.60;;;7.50;99.90;;;;;;5041949;28;25071;-77
2023/01/09 11:51:28;;;;;;;2.90;0.45;;;7.50;99.90;;;;;;5041816;28;25054;-77
2023/01/09 11:54:14;;;;;;;2.30;0.38;;;7.50;99.90;;;;;;5061154;28;25093;-77
2023/01/09 11:56:43;;;;;;;2.05;0.70;;;7.50;99.90;;;;;;5060073;28;25074;-77
2023/01/09 11:59:26;;;;;;;4.65;0.85;;;7.50;99.90;;;;;;5041910;28;25073;-77
2023/01/09 12:02:09;;;;;;;3.90;0.60;;;7.50;99.90;;;;;;5041777;28;25079;-77
2023/01/09 12:04:43;;;;;;;1.80;0.40;;;7.60;99.90;;;;;;5041772;28;25115;-76
2023/01/09 12:07:47;;;;;;;1.58;0.50;;;7.70;99.90;;;;;;5059643;28;25112;-75
2023/01/09 12:10:52;;;;;;;1.75;0.70;;;7.60;99.90;;;;;;5041544;28;25058;-77
2023/01/09 12:13:59;;;;;;;3.30;0.68;;;7.60;99.90;;;;;;5041611;28;25122;-78
2023/01/09 12:17:00;;;;;;;5.55;0.60;;;7.50;99.90;;;;;;5041420;28;25068;-77
2023/01/09 12:19:46;;;;;;;3.50;0.45;;;7.50;99.90;;;;;;5059236;28;25047;-77
2023/01/09 12:22:18;;;;;;;2.80;0.47;;;7.50;99.90;;;;;;5059453;28;25134;-79
2023/01/09 12:25:03;;;;;;;1.08;0.30;;;7.50;99.90;;;;;;5041383;28;25053;-78
2023/01/09 12:28:16;;;;;;;3.42;0.63;;;7.50;99.90;;;;;;5059371;28;25069;-78
2023/01/09 12:30:56;;;;;;;6.50;0.70;;;7.50;99.90;;;;;;5045526;28;25052;-76
2023/01/09 12:33:57;;;;;;;4.45;0.60;;;7.60;99.90;;;;;;5077975;28;25378;-74
2023/01/09 12:36:57;;;;;;;3.08;0.60;;;7.60;99.90;;;;;;5077741;28;25069;-73
2023/01/09 12:39:57;;;;;;;2.10;0.55;;;7.60;99.90;;;;;;5078842;28;25475;-71
2023/01/09 12:42:41;;;;;;;2.63;1.27;;;7.70;99.90;;;;;;5077873;28;25060;-76
2023/01/09 12:45:38;;;;;;;6.38;1.85;;;7.70;99.90;;;;;;5078962;28;25073;-73
2023/01/09 12:48:34;;;;;;;;;;;7.70;99.90;;;;;;5079076;28;25059;-78
2023/01/09 12:51:30;;;;;;;2.42;0.82;;;7.70;99.90;;;;;;4990571;28;25128;-78
2023/01/09 12:54:15;;;;;;;2.50;0.40;;;7.70;99.90;;;;;;5077629;28;25140;-78
2023/01/09 12:57:00;;;;;;;5.68;1.55;;;7.70;99.90;;;;;;5078796;28;25125;-75
2023/01/09 12:59:31;;;;;;;2.87;0.60;;;7.80;99.90;;;;;;5078537;28;25071;-77
2023/01/09 13:02:21;;;;;;;3.30;0.85;;;7.80;99.90;;;;;;5077249;28;25156;-77
2023/01/09 13:05:18;;;;;;;3.33;1.17;;;7.80;99.90;;;;;;5078346;28;25045;-73
2023/01/09 13:07:59;;;;;;;1.17;0.52;;;7.80;99.90;;;;;;5078550;28;25076;-80
2023/01/09 13:10:37;;;;;;;1.95;0.52;;;7.80;99.90;;;;;;5078172;28;25075;-82
2023/01/09 13:13:20;;;;;;;4.32;0.80;;;7.80;99.90;;;;;;5076228;28;25058;-84
2023/01/09 13:15:55;;;;;;;0.70;0.55;;;7.80;99.90;;;;;;5078367;28;25110;-82
2023/01/09 13:18:48;;;;;;;3.50;1.20;;;7.70;99.90;;;;;;5077235;28;25086;-82
2023/01/09 13:21:16;;;;;;;5.28;1.27;;;7.70;99.90;;;;;;5076934;28;25115;-82
2023/01/09 13:24:07;;;;;;;5.82;1.60;;;7.70;99.90;;;;;;5076902;28;25067;-81
2023/01/09 13:26:50;;;;;;;3.72;1.33;;;7.70;99.90;;;;;;5076770;28;25067;-81
2023/01/09 13:29:24;;;;;;;6.03;1.00;;;7.70;99.90;;;;;;5076921;28;25109;-80
2023/01/09 13:32:40;;;;;;;5.40;1.02;;;7.70;99.90;;;;;;5077697;28;25119;-81
2023/01/09 13:35:15;;;;;;;2.42;1.00;;;7.70;99.90;;;;;;5076725;28;25059;-81
2023/01/09 13:37:49;;;;;;;4.68;1.98;;;7.70;99.90;;;;;;5076626;28;25111;-81
2023/01/09 13:40:19;;;;;;;3.42;1.45;;;7.70;99.90;;;;;;5077647;28;25118;-80
2023/01/09 13:43:09;;;;;;;2.60;0.77;;;7.70;99.90;;;;;;5076593;28;25061;-83
2023/01/09 13:45:38;;;;;;;2.15;0.80;;;7.80;99.90;;;;;;5076451;28;25102;-74
2023/01/09 13:48:18;;;;;;;5.13;0.95;;;7.70;99.90;;;;;;5076458;28;25109;-79
2023/01/09 13:50:47;;;;;;;4.43;0.98;;;7.60;99.90;;;;;;5076712;28;25078;-79